Time;durP1;ratioP1;P1;durP2;ratioP2;P2;SDS_P1;SDS_P2;PMS_P1;PMS_P2;Temp;Humidity;BMP_temperature;BMP_pressure;BME280_temperature;BME280_humidity;BME280_pressure;Samples;Min_cycle;Max_cycle;Signal;HPM_P1;HPM_P2
2022/12/27 00:00:17;;;;;;;9.38;3.25;;;;;;;;;;5055824;28;20185;-77
2022/12/27 00:02:43;;;;;;;4.15;2.40;;;;;;;;;;5040120;28;20188;-77
2022/12/27 00:05:10;;;;;;;6.30;1.98;;;;;;;;;;5056077;28;20182;-77
2022/12/27 00:07:36;;;;;;;4.07;1.70;;;;;;;;;;5055853;28;20276;-77
2022/12/27 00:10:03;;;;;;;6.38;2.00;;;;;;;;;;5057480;28;20175;-77
2022/12/27 00:12:29;;;;;;;13.10;3.25;;;;;;;;;;5055653;28;20615;-77
2022/12/27 00:14:55;;;;;;;4.95;2.35;;;;;;;;;;5057092;28;20534;-77
2022/12/27 00:17:21;;;;;;;6.95;1.92;;;;;;;;;;5055467;28;20177;-77
2022/12/27 00:19:47;;;;;;;8.90;2.67;;;;;;;;;;5055892;28;20177;-77
2022/12/27 00:22:13;;;;;;;8.25;2.55;;;;;;;;;;5056403;28;20275;-77
2022/12/27 00:24:39;;;;;;;4.43;2.15;;;;;;;;;;5056695;28;20534;-78
2022/12/27 00:27:05;;;;;;;5.18;2.00;;;;;;;;;;5055591;28;20209;-77
2022/12/27 00:29:31;;;;;;;4.05;1.80;;;;;;;;;;5055718;28;20169;-77
2022/12/27 00:31:57;;;;;;;7.20;1.85;;;;;;;;;;5055870;28;20237;-78
2022/12/27 00:34:23;;;;;;;8.25;2.78;;;;;;;;;;5056683;28;20173;-77
2022/12/27 00:36:49;;;;;;;3.85;1.55;;;;;;;;;;5038935;28;20178;-78
2022/12/27 00:39:15;;;;;;;8.02;2.78;;;;;;;;;;5056892;28;20242;-78
2022/12/27 00:41:41;;;;;;;7.18;2.00;;;;;;;;;;5057152;28;20168;-77
2022/12/27 00:44:08;;;;;;;9.55;2.95;;;;;;;;;;5039163;28;20197;-77
2022/12/27 00:46:34;;;;;;;7.22;1.80;;;;;;;;;;5039129;28;20183;-77
2022/12/27 00:49:00;;;;;;;2.45;1.45;;;;;;;;;;5055674;28;20618;-77
2022/12/27 00:51:26;;;;;;;5.72;2.22;;;;;;;;;;5056557;28;20185;-77
2022/12/27 00:53:52;;;;;;;2.97;1.90;;;;;;;;;;5056825;28;20184;-77
2022/12/27 00:56:20;;;;;;;9.73;2.25;;;;;;;;;;5054924;28;20181;-79
2022/12/27 00:58:46;;;;;;;9.43;2.03;;;;;;;;;;5056958;28;20219;-77
2022/12/27 01:01:16;;;;;;;5.90;1.60;;;;;;;;;;5056601;28;20220;-77
2022/12/27 01:03:43;;;;;;;7.25;1.90;;;;;;;;;;5056371;28;20272;-77
2022/12/27 01:06:11;;;;;;;7.78;1.90;;;;;;;;;;5056069;28;20176;-77
2022/12/27 01:08:37;;;;;;;9.20;2.10;;;;;;;;;;5055978;28;20225;-77
2022/12/27 01:11:04;;;;;;;4.97;1.80;;;;;;;;;;5055236;28;20344;-79
2022/12/27 01:13:30;;;;;;;6.60;1.40;;;;;;;;;;5058838;28;20250;-77
2022/12/27 01:15:56;;;;;;;4.47;1.52;;;;;;;;;;5059887;28;20190;-77
2022/12/27 01:18:22;;;;;;;6.32;1.90;;;;;;;;;;5060765;28;20207;-77
2022/12/27 01:20:48;;;;;;;7.22;1.45;;;;;;;;;;5060730;28;20170;-77
2022/12/27 01:23:15;;;;;;;6.35;2.13;;;;;;;;;;5059822;28;20539;-78
2022/12/27 01:25:41;;;;;;;10.82;2.78;;;;;;;;;;5058900;28;20231;-78
2022/12/27 01:28:07;;;;;;;6.72;2.75;;;;;;;;;;5058877;28;20177;-77
2022/12/27 01:30:33;;;;;;;4.75;1.65;;;;;;;;;;5059997;28;20165;-77
2022/12/27 01:32:59;;;;;;;6.82;1.80;;;;;;;;;;5060201;28;20223;-77
2022/12/27 01:35:25;;;;;;;3.90;2.00;;;;;;;;;;5060344;28;20184;-77
2022/12/27 01:37:51;;;;;;;5.68;1.85;;;;;;;;;;5059327;28;20206;-77
2022/12/27 01:40:17;;;;;;;11.85;2.17;;;;;;;;;;5059500;28;20165;-78
2022/12/27 01:42:54;;;;;;;4.65;2.00;;;;;;;;;;5060202;28;20174;-77
2022/12/27 01:45:27;;;;;;;4.60;1.92;;;;;;;;;;5058419;28;20266;-81
2022/12/27 01:48:00;;;;;;;3.00;1.42;;;;;;;;;;5060868;28;20181;-77
2022/12/27 01:50:26;;;;;;;5.00;1.70;;;;;;;;;;5058641;28;20266;-78
2022/12/27 01:52:52;;;;;;;10.30;2.47;;;;;;;;;;5058639;28;20208;-77
2022/12/27 01:55:18;;;;;;;3.00;1.55;;;;;;;;;;5058850;28;20177;-77
2022/12/27 01:57:45;;;;;;;3.55;1.65;;;;;;;;;;5058429;28;20177;-77
2022/12/27 02:00:11;;;;;;;6.13;1.80;;;;;;;;;;5058479;28;20193;-77
2022/12/27 02:02:37;;;;;;;7.20;1.58;;;;;;;;;;5059351;28;20653;-77
2022/12/27 02:05:04;;;;;;;4.38;2.17;;;;;;;;;;5059704;28;20189;-77
2022/12/27 02:07:34;;;;;;;8.55;2.03;;;;;;;;;;5057466;28;20177;-77
2022/12/27 02:10:02;;;;;;;6.00;1.88;;;;;;;;;;5058044;28;20194;-79
2022/12/27 02:12:28;;;;;;;4.25;1.60;;;;;;;;;;5059369;28;20217;-78
2022/12/27 02:14:54;;;;;;;8.82;1.92;;;;;;;;;;5058956;28;20169;-77
2022/12/27 02:17:23;;;;;;;3.53;1.25;;;;;;;;;;5059352;28;20592;-77
2022/12/27 02:20:05;;;;;;;10.18;1.60;;;;;;;;;;5059845;28;20241;-77
2022/12/27 02:25:49;;;;;;;7.53;1.67;;;;;;;;;;5058668;28;20535;-78
2022/12/27 02:28:31;;;;;;;8.10;3.75;;;;;;;;;;5059657;28;20170;-77
2022/12/27 02:31:05;;;;;;;7.85;1.95;;;;;;;;;;5058923;28;20676;-77
2022/12/27 02:33:34;;;;;;;7.95;3.25;;;;;;;;;;5057517;28;20228;-77
2022/12/27 02:36:03;;;;;;;2.47;1.60;;;;;;;;;;5059255;28;20165;-77
2022/12/27 02:38:35;;;;;;;4.03;1.38;;;;;;;;;;5058248;28;20240;-77
2022/12/27 02:55:10;;;;;;;14.00;2.00;;;;;;;;;;5058356;28;20224;-77
2022/12/27 02:57:48;;;;;;;4.65;1.45;;;;;;;;;;5057491;28;20176;-77
2022/12/27 03:03:25;;;;;;;9.02;2.70;;;;;;;;;;5059197;28;20173;-77
2022/12/27 03:09:12;;;;;;;9.15;1.88;;;;;;;;;;5059058;28;20342;-76
2022/12/27 03:17:39;;;;;;;5.93;1.65;;;;;;;;;;5057679;28;20176;-77
2022/12/27 03:25:42;;;;;;;6.88;1.92;;;;;;;;;;5057969;28;20156;-77
2022/12/27 03:33:45;;;;;;;8.20;1.70;;;;;;;;;;5058030;28;20184;-77
2022/12/27 03:39:18;;;;;;;5.65;2.38;;;;;;;;;;5057362;28;20218;-77
2022/12/27 03:44:33;;;;;;;8.63;2.05;;;;;;;;;;5056923;28;20252;-77
2022/12/27 03:47:00;;;;;;;8.70;2.67;;;;;;;;;;5057316;28;20182;-78
2022/12/27 03:49:32;;;;;;;11.70;1.67;;;;;;;;;;5057686;28;20622;-77
2022/12/27 03:52:10;;;;;;;4.60;2.00;;;;;;;;;;5056172;28;20259;-77
2022/12/27 03:54:38;;;;;;;5.97;1.92;;;;;;;;;;5055904;28;20227;-77
2022/12/27 03:57:05;;;;;;;5.00;1.95;;;;;;;;;;5056953;28;20178;-78
2022/12/27 03:59:32;;;;;;;10.27;2.03;;;;;;;;;;5055909;28;20208;-78
2022/12/27 04:01:58;;;;;;;7.22;1.80;;;;;;;;;;5057314;28;20184;-77
2022/12/27 04:04:24;;;;;;;11.10;2.13;;;;;;;;;;5057136;28;20169;-77
2022/12/27 04:06:50;;;;;;;4.50;1.55;;;;;;;;;;5055850;28;20169;-77
2022/12/27 04:36:44;;;;;;;6.95;1.85;;;;;;;;;;5056796;28;20230;-77
2022/12/27 04:39:10;;;;;;;5.97;1.80;;;;;;;;;;5055120;28;20174;-77
2022/12/27 04:55:20;;;;;;;3.65;1.65;;;;;;;;;;5056901;28;20292;-78
2022/12/27 04:57:46;;;;;;;5.35;1.65;;;;;;;;;;5056374;28;20167;-77
2022/12/27 05:02:57;;;;;;;7.82;1.92;;;;;;;;;;5055542;28;20165;-77
2022/12/27 05:05:24;;;;;;;9.32;2.00;;;;;;;;;;5038822;28;20192;-78
2022/12/27 05:16:05;;;;;;;8.70;2.28;;;;;;;;;;5055238;28;20171;-76
2022/12/27 05:18:31;;;;;;;9.02;1.90;;;;;;;;;;5056195;28;20561;-76
2022/12/27 05:21:04;;;;;;;5.43;1.70;;;;;;;;;;5055079;28;20173;-76
2022/12/27 05:26:22;;;;;;;11.25;2.60;;;;;;;;;;5057092;28;20184;-76
2022/12/27 05:28:49;;;;;;;5.57;2.05;;;;;;;;;;5056387;28;20169;-76
2022/12/27 05:31:15;;;;;;;5.47;1.75;;;;;;;;;;5055587;28;20177;-76
2022/12/27 05:33:41;;;;;;;5.15;2.38;;;;;;;;;;5038368;28;20232;-77
2022/12/27 05:36:07;;;;;;;6.10;2.25;;;;;;;;;;5056290;28;20232;-77
2022/12/27 05:38:33;;;;;;;20.20;2.80;;;;;;;;;;5055639;28;20185;-76
2022/12/27 05:41:00;;;;;;;10.52;3.53;;;;;;;;;;5055256;28;20178;-76
2022/12/27 05:43:26;;;;;;;11.93;2.75;;;;;;;;;;5056204;28;20200;-76
2022/12/27 05:45:52;;;;;;;5.38;2.10;;;;;;;;;;5056173;28;20255;-76
2022/12/27 05:48:19;;;;;;;4.60;1.52;;;;;;;;;;5054988;28;20174;-77
2022/12/27 05:50:45;;;;;;;5.68;1.48;;;;;;;;;;5056439;28;20256;-76
2022/12/27 05:53:11;;;;;;;9.02;1.65;;;;;;;;;;5055193;28;20209;-77
2022/12/27 05:55:37;;;;;;;5.50;1.92;;;;;;;;;;5056543;28;20178;-78
2022/12/27 05:58:03;;;;;;;4.72;2.28;;;;;;;;;;5057742;28;20225;-77
2022/12/27 06:00:29;;;;;;;7.03;1.60;;;;;;;;;;5060252;28;20192;-77
2022/12/27 06:02:55;;;;;;;8.48;1.70;;;;;;;;;;5060101;28;20239;-76
2022/12/27 06:05:21;;;;;;;6.93;1.83;;;;;;;;;;5058830;28;20181;-76
2022/12/27 06:07:47;;;;;;;7.07;1.90;;;;;;;;;;5058096;28;20243;-77
2022/12/27 06:10:13;;;;;;;6.35;1.67;;;;;;;;;;5057808;28;20616;-77
2022/12/27 06:12:39;;;;;;;8.07;2.17;;;;;;;;;;5058241;28;20293;-78
2022/12/27 06:15:05;;;;;;;3.55;1.45;;;;;;;;;;5058965;28;20174;-77
2022/12/27 06:17:32;;;;;;;10.23;1.92;;;;;;;;;;5059719;28;20173;-77
2022/12/27 06:19:58;;;;;;;7.82;2.10;;;;;;;;;;5058431;28;20605;-77
2022/12/27 06:22:24;;;;;;;6.40;1.80;;;;;;;;;;5058614;28;20276;-76
2022/12/27 06:24:50;;;;;;;3.60;2.08;;;;;;;;;;5059480;28;20177;-77
2022/12/27 06:27:16;;;;;;;7.68;2.95;;;;;;;;;;5059317;28;20177;-76
2022/12/27 06:29:42;;;;;;;5.10;2.20;;;;;;;;;;5058427;28;20180;-77
2022/12/27 06:32:08;;;;;;;8.80;1.90;;;;;;;;;;5059262;28;20235;-76
2022/12/27 06:34:34;;;;;;;7.40;1.52;;;;;;;;;;5057773;28;20392;-76
2022/12/27 06:37:00;;;;;;;6.22;2.25;;;;;;;;;;5041000;28;20173;-76
2022/12/27 06:39:26;;;;;;;2.55;1.60;;;;;;;;;;5058441;28;20557;-76
2022/12/27 06:41:54;;;;;;;15.52;2.30;;;;;;;;;;5057602;28;20177;-76
2022/12/27 06:44:20;;;;;;;5.45;1.77;;;;;;;;;;5058037;28;20641;-77
2022/12/27 06:46:47;;;;;;;12.02;1.88;;;;;;;;;;5056969;28;20260;-77
2022/12/27 06:49:13;;;;;;;9.60;2.50;;;;;;;;;;5057903;28;20186;-77
2022/12/27 06:51:39;;;;;;;9.07;1.90;;;;;;;;;;5058267;28;20182;-79
2022/12/27 06:54:05;;;;;;;3.83;1.20;;;;;;;;;;5059032;28;20552;-77
2022/12/27 06:56:31;;;;;;;3.22;1.70;;;;;;;;;;5057736;28;20174;-77
2022/12/27 06:58:57;;;;;;;4.53;1.73;;;;;;;;;;5057354;28;20183;-77
2022/12/27 07:01:24;;;;;;;7.55;1.75;;;;;;;;;;5058479;28;20274;-77
2022/12/27 07:03:51;;;;;;;7.47;1.75;;;;;;;;;;5058718;28;20177;-77
2022/12/27 07:06:17;;;;;;;5.15;1.73;;;;;;;;;;5058947;28;20231;-76
2022/12/27 07:08:44;;;;;;;5.78;1.70;;;;;;;;;;5058025;28;20233;-77
2022/12/27 07:11:11;;;;;;;4.72;1.45;;;;;;;;;;5040344;28;20634;-77
2022/12/27 07:13:38;;;;;;;7.93;1.55;;;;;;;;;;5057805;28;20213;-77
2022/12/27 07:16:05;;;;;;;6.00;1.80;;;;;;;;;;5058450;28;20241;-77
2022/12/27 07:18:31;;;;;;;7.50;1.65;;;;;;;;;;5058527;28;20188;-76
2022/12/27 07:20:57;;;;;;;4.43;1.50;;;;;;;;;;5058408;28;20177;-77
2022/12/27 07:23:23;;;;;;;9.60;1.75;;;;;;;;;;5057122;28;20260;-77
2022/12/27 07:25:49;;;;;;;13.75;2.47;;;;;;;;;;5056758;28;20633;-77
2022/12/27 07:28:15;;;;;;;9.13;2.03;;;;;;;;;;5058139;28;20272;-78
2022/12/27 07:30:41;;;;;;;5.88;1.60;;;;;;;;;;5058913;28;20738;-80
2022/12/27 07:33:08;;;;;;;4.60;2.38;;;;;;;;;;5057910;28;20199;-77
2022/12/27 07:35:34;;;;;;;3.97;1.65;;;;;;;;;;5058307;28;20714;-76
2022/12/27 07:38:00;;;;;;;8.98;1.80;;;;;;;;;;5056487;28;20173;-77
2022/12/27 07:40:26;;;;;;;4.82;2.00;;;;;;;;;;5057974;28;20660;-76
2022/12/27 07:42:52;;;;;;;3.43;1.70;;;;;;;;;;5056630;28;20182;-77
2022/12/27 07:45:18;;;;;;;9.45;1.70;;;;;;;;;;5056956;28;20871;-76
2022/12/27 07:47:44;;;;;;;10.27;2.40;;;;;;;;;;5056545;28;20182;-78
2022/12/27 07:50:10;;;;;;;8.60;1.90;;;;;;;;;;5058438;28;20186;-77
2022/12/27 07:52:36;;;;;;;5.03;1.80;;;;;;;;;;5058250;28;20459;-78
2022/12/27 07:55:02;;;;;;;6.57;1.77;;;;;;;;;;5057255;28;20574;-76
2022/12/27 07:57:28;;;;;;;4.53;1.75;;;;;;;;;;5055946;28;20333;-77
2022/12/27 07:59:54;;;;;;;4.55;1.48;;;;;;;;;;5056467;28;20246;-78
2022/12/27 08:02:20;;;;;;;6.80;1.88;;;;;;;;;;5057613;28;20264;-77
2022/12/27 08:04:46;;;;;;;7.13;2.27;;;;;;;;;;5057487;28;20181;-77
2022/12/27 08:07:14;;;;;;;6.55;1.90;;;;;;;;;;5056223;28;20401;-76
2022/12/27 08:09:41;;;;;;;6.13;2.10;;;;;;;;;;5057623;28;20226;-77
2022/12/27 08:12:07;;;;;;;5.20;1.90;;;;;;;;;;5057248;28;20284;-78
2022/12/27 08:14:33;;;;;;;9.75;2.33;;;;;;;;;;5056750;28;20177;-78
2022/12/27 08:17:04;;;;;;;3.47;1.67;;;;;;;;;;5057074;28;20173;-77
2022/12/27 08:19:30;;;;;;;5.38;2.00;;;;;;;;;;5057289;28;20177;-76
2022/12/27 08:21:56;;;;;;;4.90;2.17;;;;;;;;;;5055278;28;20260;-78
2022/12/27 08:24:23;;;;;;;5.50;2.05;;;;;;;;;;5039583;28;20208;-76
2022/12/27 08:26:49;;;;;;;7.55;2.20;;;;;;;;;;5056149;28;20173;-77
2022/12/27 08:29:15;;;;;;;5.23;2.07;;;;;;;;;;5057216;28;20181;-78
2022/12/27 08:31:41;;;;;;;4.85;1.42;;;;;;;;;;5057425;28;20452;-77
2022/12/27 08:34:07;;;;;;;10.55;2.40;;;;;;;;;;5057436;28;20180;-77
2022/12/27 08:36:33;;;;;;;5.90;2.20;;;;;;;;;;5057435;28;20268;-77
2022/12/27 08:38:59;;;;;;;9.32;1.90;;;;;;;;;;5055717;28;20260;-79
2022/12/27 08:41:25;;;;;;;8.90;2.00;;;;;;;;;;5056468;28;20165;-79
2022/12/27 08:43:51;;;;;;;6.53;1.60;;;;;;;;;;5055729;28;20196;-79
2022/12/27 08:46:18;;;;;;;4.18;1.35;;;;;;;;;;5056953;28;20170;-77
2022/12/27 08:48:46;;;;;;;3.10;1.55;;;;;;;;;;5055998;28;20382;-77
2022/12/27 08:51:12;;;;;;;11.30;2.05;;;;;;;;;;5056331;28;20177;-77
2022/12/27 08:53:38;;;;;;;6.80;2.80;;;;;;;;;;5057183;28;20213;-77
2022/12/27 08:56:04;;;;;;;8.27;1.93;;;;;;;;;;5075765;28;20445;-77
2022/12/27 08:58:30;;;;;;;5.55;1.88;;;;;;;;;;5077371;28;20449;-77
2022/12/27 09:00:56;;;;;;;3.63;1.57;;;;;;;;;;5077000;28;20571;-77
2022/12/27 09:03:22;;;;;;;3.90;2.15;;;;;;;;;;5076168;28;20411;-77
2022/12/27 09:05:48;;;;;;;6.05;2.10;;;;;;;;;;5076569;28;20225;-77
2022/12/27 09:08:15;;;;;;;6.57;2.20;;;;;;;;;;5076431;28;20226;-77
2022/12/27 09:10:41;;;;;;;7.82;2.22;;;;;;;;;;5076901;28;20169;-76
2022/12/27 09:13:07;;;;;;;6.10;2.17;;;;;;;;;;5076612;28;20304;-77
2022/12/27 09:15:33;;;;;;;6.72;2.10;;;;;;;;;;5076948;28;20568;-76
2022/12/27 09:17:59;;;;;;;7.55;2.03;;;;;;;;;;5074816;28;20173;-76
2022/12/27 09:20:25;;;;;;;10.43;2.45;;;;;;;;;;5074785;28;20211;-77
2022/12/27 09:22:51;;;;;;;13.68;1.92;;;;;;;;;;5076750;28;20184;-77
2022/12/27 09:25:17;;;;;;;7.15;1.95;;;;;;;;;;5075912;28;20180;-77
2022/12/27 09:27:43;;;;;;;8.13;4.35;;;;;;;;;;5076489;28;20531;-77
2022/12/27 09:30:09;;;;;;;10.25;2.25;;;;;;;;;;5076634;28;20172;-76
2022/12/27 09:32:35;;;;;;;5.70;1.77;;;;;;;;;;5077285;28;20204;-77
2022/12/27 09:35:02;;;;;;;7.80;1.98;;;;;;;;;;5080151;28;20199;-77
2022/12/27 09:37:28;;;;;;;8.23;2.08;;;;;;;;;;5080341;28;20170;-77
2022/12/27 09:39:54;;;;;;;4.05;2.10;;;;;;;;;;5079491;28;20202;-77
2022/12/27 09:42:20;;;;;;;10.35;1.95;;;;;;;;;;5079611;28;20173;-77
2022/12/27 09:44:46;;;;;;;9.20;2.20;;;;;;;;;;5079258;28;20169;-77
2022/12/27 09:47:17;;;;;;;6.03;2.20;;;;;;;;;;5080002;28;20399;-76
2022/12/27 09:49:46;;;;;;;7.97;3.42;;;;;;;;;;5079750;28;20188;-77
2022/12/27 09:52:12;;;;;;;11.90;2.25;;;;;;;;;;5079691;28;20200;-77
2022/12/27 09:54:44;;;;;;;6.00;1.80;;;;;;;;;;5079819;28;20169;-77
2022/12/27 09:57:22;;;;;;;8.15;4.15;;;;;;;;;;5076013;28;20161;-79
2022/12/27 09:59:52;;;;;;;5.72;1.50;;;;;;;;;;5058187;28;20268;-77
2022/12/27 10:02:22;;;;;;;8.77;2.28;;;;;;;;;;5057833;28;20190;-76
2022/12/27 10:04:48;;;;;;;7.38;1.92;;;;;;;;;;5057551;28;20181;-77
2022/12/27 10:07:24;;;;;;;10.18;1.83;;;;;;;;;;5058267;28;20581;-77
2022/12/27 10:09:58;;;;;;;4.03;1.23;;;;;;;;;;5056858;28;20228;-80
2022/12/27 10:12:27;;;;;;;12.88;1.55;;;;;;;;;;5058048;28;20252;-76
2022/12/27 10:14:59;;;;;;;12.50;2.33;;;;;;;;;;5057367;28;20215;-77
2022/12/27 10:17:25;;;;;;;12.27;2.03;;;;;;;;;;5058898;28;20254;-77
2022/12/27 10:20:03;;;;;;;5.22;2.00;;;;;;;;;;5057883;28;20589;-78
2022/12/27 10:22:33;;;;;;;3.97;1.85;;;;;;;;;;5059512;28;20215;-76
2022/12/27 10:25:02;;;;;;;4.68;1.80;;;;;;;;;;5057526;28;20271;-76
2022/12/27 10:27:29;;;;;;;8.85;1.88;;;;;;;;;;5058298;28;20252;-78
2022/12/27 10:29:59;;;;;;;4.57;1.35;;;;;;;;;;5041177;28;20276;-77
2022/12/27 10:32:25;;;;;;;5.82;2.10;;;;;;;;;;5041021;28;20217;-77
2022/12/27 10:34:56;;;;;;;6.13;1.80;;;;;;;;;;5058020;28;20201;-79
2022/12/27 10:37:22;;;;;;;6.60;2.17;;;;;;;;;;5058072;28;20185;-76
2022/12/27 10:39:48;;;;;;;5.75;1.30;;;;;;;;;;5058680;28;20622;-76
2022/12/27 10:42:20;;;;;;;8.07;1.80;;;;;;;;;;5057288;28;20266;-76
2022/12/27 10:44:46;;;;;;;3.05;1.38;;;;;;;;;;5057168;28;20188;-76
2022/12/27 10:47:12;;;;;;;3.40;1.50;;;;;;;;;;5055197;28;20184;-77
2022/12/27 10:49:39;;;;;;;8.85;1.83;;;;;;;;;;5057284;28;20240;-76
2022/12/27 10:52:23;;;;;;;3.25;1.90;;;;;;;;;;5058549;28;20235;-76
2022/12/27 10:54:54;;;;;;;3.28;1.60;;;;;;;;;;5057101;28;20631;-76
2022/12/27 10:57:34;;;;;;;4.90;1.45;;;;;;;;;;5056311;28;20191;-78
2022/12/27 11:00:15;;;;;;;4.22;1.70;;;;;;;;;;5057095;28;20181;-77
2022/12/27 11:02:59;;;;;;;6.50;1.52;;;;;;;;;;5058896;28;20156;-76
2022/12/27 11:05:33;;;;;;;10.23;2.20;;;;;;;;;;5057421;28;20169;-76
2022/12/27 11:08:02;;;;;;;7.43;2.00;;;;;;;;;;5056218;28;20169;-76
2022/12/27 11:10:32;;;;;;;5.00;1.98;;;;;;;;;;5040618;28;20183;-77
2022/12/27 11:13:02;;;;;;;5.07;1.45;;;;;;;;;;5057503;28;20197;-78
2022/12/27 11:15:29;;;;;;;7.07;1.55;;;;;;;;;;5056810;28;20185;-76
2022/12/27 11:17:57;;;;;;;4.13;1.50;;;;;;;;;;5057827;28;20231;-77
2022/12/27 11:20:26;;;;;;;4.38;1.52;;;;;;;;;;5056554;28;20182;-76
2022/12/27 11:22:58;;;;;;;3.75;1.65;;;;;;;;;;5058019;28;20172;-76
2022/12/27 11:25:25;;;;;;;3.67;1.40;;;;;;;;;;5056461;28;20277;-76
2022/12/27 11:27:52;;;;;;;2.85;1.08;;;;;;;;;;5056081;28;20182;-78
2022/12/27 11:30:28;;;;;;;4.85;1.85;;;;;;;;;;5056754;28;20630;-77
2022/12/27 11:32:55;;;;;;;5.47;1.52;;;;;;;;;;5056707;28;20219;-80
2022/12/27 11:35:22;;;;;;;5.75;1.50;;;;;;;;;;5058131;28;20177;-76
2022/12/27 11:37:49;;;;;;;8.27;1.65;;;;;;;;;;5057891;28;20306;-76
2022/12/27 11:40:23;;;;;;;13.75;2.13;;;;;;;;;;5057220;28;20181;-77
2022/12/27 11:43:18;;;;;;;5.40;2.08;;;;;;;;;;5057618;28;20180;-76
2022/12/27 11:45:46;;;;;;;5.07;1.83;;;;;;;;;;5056177;28;20707;-77
2022/12/27 11:48:15;;;;;;;6.93;2.00;;;;;;;;;;5056033;28;20191;-76
2022/12/27 11:50:54;;;;;;;7.68;2.17;;;;;;;;;;5057534;28;20198;-76
2022/12/27 11:53:38;;;;;;;7.18;2.08;;;;;;;;;;5057030;28;20548;-76
2022/12/27 11:56:11;;;;;;;7.38;1.20;;;;;;;;;;5055402;28;20184;-78
2022/12/27 11:58:43;;;;;;;5.03;1.85;;;;;;;;;;5057685;28;20169;-76
2022/12/27 12:01:26;;;;;;;5.07;1.73;;;;;;;;;;5055585;28;20173;-76
2022/12/27 12:03:58;;;;;;;6.60;2.00;;;;;;;;;;5057369;28;20181;-77
2022/12/27 12:06:33;;;;;;;10.18;2.80;;;;;;;;;;5055974;28;20196;-76
2022/12/27 12:09:15;;;;;;;5.03;2.60;;;;;;;;;;5056064;28;20277;-77
2022/12/27 12:11:56;;;;;;;8.45;1.85;;;;;;;;;;5057338;28;20246;-76
2022/12/27 12:14:35;;;;;;;5.72;1.45;;;;;;;;;;5055610;28;20220;-76
2022/12/27 12:17:01;;;;;;;5.78;1.80;;;;;;;;;;5056495;28;20569;-77
2022/12/27 12:19:33;;;;;;;4.53;1.40;;;;;;;;;;5057272;28;20197;-76
2022/12/27 12:22:11;;;;;;;12.65;1.70;;;;;;;;;;5056641;28;20458;-77
2022/12/27 12:24:52;;;;;;;6.80;1.42;;;;;;;;;;5057043;28;20168;-76
2022/12/27 12:27:24;;;;;;;4.55;1.42;;;;;;;;;;5056412;28;20169;-76
2022/12/27 12:30:11;;;;;;;7.18;1.80;;;;;;;;;;5057233;28;20570;-77
2022/12/27 12:32:37;;;;;;;10.40;1.30;;;;;;;;;;5075524;28;20205;-77
2022/12/27 12:35:14;;;;;;;6.30;1.80;;;;;;;;;;5070346;28;20169;-77
2022/12/27 12:37:53;;;;;;;2.50;1.60;;;;;;;;;;5077384;28;20218;-75
2022/12/27 12:40:28;;;;;;;9.90;1.80;;;;;;;;;;5074782;28;20267;-76
2022/12/27 12:43:17;;;;;;;4.93;1.45;;;;;;;;;;5077233;28;20179;-76
2022/12/27 12:45:52;;;;;;;5.45;2.38;;;;;;;;;;5056231;28;20192;-76
2022/12/27 12:48:21;;;;;;;5.18;1.38;;;;;;;;;;5070396;28;20184;-76
2022/12/27 12:50:51;;;;;;;4.45;2.15;;;;;;;;;;5055701;28;20173;-77
2022/12/27 12:53:26;;;;;;;3.63;1.38;;;;;;;;;;5052470;28;20288;-76
2022/12/27 12:56:11;;;;;;;7.80;1.73;;;;;;;;;;5055544;28;20203;-76
2022/12/27 12:58:45;;;;;;;5.72;1.13;;;;;;;;;;5056604;28;20169;-78
2022/12/27 13:01:12;;;;;;;6.82;1.75;;;;;;;;;;5055305;28;20176;-76
2022/12/27 13:03:45;;;;;;;6.00;1.77;;;;;;;;;;5056671;28;20169;-76
2022/12/27 13:06:18;;;;;;;7.53;1.40;;;;;;;;;;5056017;28;20161;-77
2022/12/27 13:09:02;;;;;;;2.05;1.05;;;;;;;;;;5059144;28;20264;-76
2022/12/27 13:11:39;;;;;;;4.55;2.03;;;;;;;;;;5059132;28;20162;-76
2022/12/27 13:14:24;;;;;;;3.72;1.10;;;;;;;;;;5060098;28;20192;-76
2022/12/27 13:17:10;;;;;;;5.55;1.52;;;;;;;;;;5059201;28;20270;-77
2022/12/27 13:19:55;;;;;;;4.22;1.73;;;;;;;;;;5056068;28;20204;-76
2022/12/27 13:22:24;;;;;;;10.38;1.73;;;;;;;;;;5059649;28;20177;-76
2022/12/27 13:24:55;;;;;;;6.68;1.55;;;;;;;;;;5059988;28;20265;-76
2022/12/27 13:27:27;;;;;;;5.15;1.25;;;;;;;;;;5059805;28;20204;-77
2022/12/27 13:30:00;;;;;;;4.82;1.42;;;;;;;;;;5059407;28;20177;-76
2022/12/27 13:32:41;;;;;;;5.00;1.58;;;;;;;;;;5059917;28;20193;-76
2022/12/27 13:35:26;;;;;;;12.38;2.22;;;;;;;;;;5060562;28;20181;-76
2022/12/27 13:38:04;;;;;;;3.03;1.13;;;;;;;;;;5061017;28;20235;-76
2022/12/27 13:40:38;;;;;;;2.00;1.20;;;;;;;;;;5060480;28;20173;-76
2022/12/27 13:43:10;;;;;;;3.05;1.25;;;;;;;;;;5059598;28;20177;-77
2022/12/27 13:45:36;;;;;;;3.80;1.10;;;;;;;;;;5060102;28;20177;-75
2022/12/27 13:48:02;;;;;;;4.60;1.30;;;;;;;;;;5059465;28;20170;-80
2022/12/27 13:50:40;;;;;;;6.00;1.40;;;;;;;;;;5059450;28;20424;-76
2022/12/27 13:53:23;;;;;;;3.65;1.40;;;;;;;;;;5058468;28;20204;-76
2022/12/27 13:55:49;;;;;;;5.35;1.20;;;;;;;;;;5057867;28;20177;-79
2022/12/27 13:58:21;;;;;;;4.83;1.27;;;;;;;;;;5056854;28;20691;-79
2022/12/27 14:01:06;;;;;;;4.40;2.10;;;;;;;;;;5058083;28;20454;-79
2022/12/27 14:03:32;;;;;;;3.58;1.40;;;;;;;;;;5057557;28;20176;-82
2022/12/27 14:06:17;;;;;;;6.63;1.20;;;;;;;;;;5056407;28;20178;-82
2022/12/27 14:08:55;;;;;;;5.38;1.40;;;;;;;;;;5057418;28;20494;-82
2022/12/27 14:11:40;;;;;;;5.75;1.50;;;;;;;;;;5056317;28;20197;-81
2022/12/27 14:14:08;;;;;;;3.70;1.70;;;;;;;;;;5057144;28;20213;-82
2022/12/27 14:16:39;;;;;;;4.60;1.63;;;;;;;;;;5056237;28;20189;-82
2022/12/27 14:19:17;;;;;;;2.13;1.13;;;;;;;;;;5057368;28;20220;-83
2022/12/27 14:21:46;;;;;;;3.60;1.13;;;;;;;;;;5057407;28;20260;-82
2022/12/27 14:24:12;;;;;;;7.63;1.67;;;;;;;;;;5057468;28;20184;-82
2022/12/27 14:26:52;;;;;;;2.22;1.27;;;;;;;;;;5056392;28;20610;-82
2022/12/27 14:29:30;;;;;;;4.10;1.40;;;;;;;;;;5057512;28;20175;-81
2022/12/27 14:32:06;;;;;;;1.50;0.82;;;;;;;;;;5056033;28;20234;-82
2022/12/27 14:34:51;;;;;;;7.00;1.52;;;;;;;;;;5056440;28;20180;-81
2022/12/27 14:37:32;;;;;;;8.30;1.40;;;;;;;;;;5056925;28;20177;-82
2022/12/27 14:40:25;;;;;;;2.17;1.20;;;;;;;;;;5057739;28;20233;-82
2022/12/27 14:43:10;;;;;;;3.13;1.20;;;;;;;;;;5055987;28;20193;-82
2022/12/27 14:45:54;;;;;;;4.32;1.90;;;;;;;;;;5056194;28;20180;-81
2022/12/27 14:48:39;;;;;;;4.72;1.42;;;;;;;;;;5056840;28;20574;-81
2022/12/27 14:51:17;;;;;;;4.82;1.42;;;;;;;;;;5056531;28;20185;-81
2022/12/27 14:53:46;;;;;;;3.60;1.45;;;;;;;;;;5056683;28;20259;-81
2022/12/27 14:56:21;;;;;;;3.55;1.23;;;;;;;;;;5056616;28;20181;-81
2022/12/27 14:58:54;;;;;;;6.20;2.25;;;;;;;;;;5055676;28;20196;-81
2022/12/27 15:01:30;;;;;;;4.35;1.08;;;;;;;;;;5055380;28;20553;-81
2022/12/27 15:04:04;;;;;;;5.35;1.25;;;;;;;;;;5056534;28;20208;-82
2022/12/27 15:06:43;;;;;;;5.85;1.80;;;;;;;;;;5056724;28;20173;-83
2022/12/27 15:09:23;;;;;;;2.05;1.15;;;;;;;;;;5056984;28;20217;-83
2022/12/27 15:12:09;;;;;;;2.33;1.13;;;;;;;;;;5055452;28;20261;-82
2022/12/27 15:14:46;;;;;;;7.30;1.40;;;;;;;;;;5054844;28;20177;-83
2022/12/27 15:17:18;;;;;;;3.08;1.63;;;;;;;;;;5056321;28;20159;-86
2022/12/27 15:19:57;;;;;;;1.92;1.20;;;;;;;;;;5056517;28;20196;-85
2022/12/27 15:22:42;;;;;;;3.45;1.38;;;;;;;;;;5054740;28;20243;-86
2022/12/27 15:25:24;;;;;;;4.25;1.35;;;;;;;;;;5055056;28;20177;-86
2022/12/27 15:27:59;;;;;;;4.18;1.60;;;;;;;;;;5055616;28;20181;-87
2022/12/27 15:30:42;;;;;;;3.45;1.70;;;;;;;;;;5053616;28;20568;-86
2022/12/27 15:33:11;;;;;;;3.72;1.65;;;;;;;;;;5055832;28;20202;-90
2022/12/27 15:35:52;;;;;;;3.10;1.52;;;;;;;;;;5054675;28;20200;-87
2022/12/27 15:38:37;;;;;;;6.20;1.70;;;;;;;;;;5054110;28;20180;-86
2022/12/27 15:41:06;;;;;;;3.13;1.15;;;;;;;;;;5054330;28;20184;-86
2022/12/27 15:43:32;;;;;;;1.75;1.35;;;;;;;;;;5053950;28;20189;-85
2022/12/27 15:46:13;;;;;;;2.13;1.70;;;;;;;;;;5055205;28;20714;-86
2022/12/27 15:48:39;;;;;;;5.50;1.85;;;;;;;;;;5054268;28;20257;-86
2022/12/27 15:51:26;;;;;;;6.80;2.08;;;;;;;;;;5055542;28;20522;-86
2022/12/27 15:54:01;;;;;;;11.00;1.73;;;;;;;;;;5044073;28;20279;-87
2022/12/27 15:56:35;;;;;;;5.85;1.60;;;;;;;;;;5053575;28;20173;-86
2022/12/27 15:59:20;;;;;;;3.35;1.80;;;;;;;;;;5055109;28;20207;-87
2022/12/27 16:01:47;;;;;;;3.97;1.98;;;;;;;;;;5054179;28;20185;-87
2022/12/27 16:04:55;;;;;;;4.63;2.53;;;;;;;;;;5053525;28;20182;-88
2022/12/27 16:07:40;;;;;;;3.95;1.60;;;;;;;;;;4996888;28;20179;-87
2022/12/27 16:10:35;;;;;;;4.85;1.63;;;;;;;;;;4996052;28;20313;-88
2022/12/27 16:13:03;;;;;;;2.60;1.40;;;;;;;;;;5029002;28;20301;-86
2022/12/27 16:15:42;;;;;;;5.72;1.92;;;;;;;;;;5053348;28;20181;-86
2022/12/27 16:18:31;;;;;;;7.72;2.30;;;;;;;;;;5072646;28;20197;-87
2022/12/27 16:27:24;;;;;;;3.50;1.92;;;;;;;;;;5072701;28;20187;-87
2022/12/27 16:29:50;;;;;;;3.95;1.90;;;;;;;;;;5055438;28;20190;-86
2022/12/27 16:32:18;;;;;;;6.35;2.20;;;;;;;;;;5036565;28;20212;-86
2022/12/27 16:34:45;;;;;;;5.25;1.63;;;;;;;;;;5072271;28;20182;-88
2022/12/27 16:37:33;;;;;;;4.72;1.88;;;;;;;;;;5053357;28;20322;-89
2022/12/27 16:40:17;;;;;;;2.53;1.40;;;;;;;;;;5065555;28;20648;-87
2022/12/27 16:42:52;;;;;;;4.72;1.95;;;;;;;;;;5057233;28;20221;-89
2022/12/27 16:45:37;;;;;;;5.65;2.45;;;;;;;;;;5053184;28;20176;-87
2022/12/27 16:48:15;;;;;;;8.90;1.88;;;;;;;;;;5054728;28;20177;-88